sensor_id;sensor_type;location;lat;lon;timestamp;P1;durP1;ratioP1;P2;durP2;ratioP2
58972;SDS011;44750;52.040;7.472;2023-05-10T00:04:55;1.55;;;1.08;;
58972;SDS011;44750;52.040;7.472;2023-05-10T00:09:55;0.73;;;0.73;;
58972;SDS011;44750;52.040;7.472;2023-05-10T00:14:56;1.60;;;1.20;;
58972;SDS011;44750;52.040;7.472;2023-05-10T00:19:56;2.03;;;1.35;;
58972;SDS011;44750;52.040;7.472;2023-05-10T00:24:56;1.15;;;0.70;;
58972;SDS011;44750;52.040;7.472;2023-05-10T00:29:57;0.85;;;0.80;;
58972;SDS011;44750;52.040;7.472;2023-05-10T00:34:57;1.55;;;1.35;;
58972;SDS011;44750;52.040;7.472;2023-05-10T00:39:57;2.70;;;1.17;;
58972;SDS011;44750;52.040;7.472;2023-05-10T00:44:58;1.23;;;1.13;;
58972;SDS011;44750;52.040;7.472;2023-05-10T00:49:58;0.98;;;0.98;;
58972;SDS011;44750;52.040;7.472;2023-05-10T00:54:59;0.70;;;0.60;;
58972;SDS011;44750;52.040;7.472;2023-05-10T01:00:00;0.80;;;0.60;;
58972;SDS011;44750;52.040;7.472;2023-05-10T01:05:02;0.43;;;0.43;;
58972;SDS011;44750;52.040;7.472;2023-05-10T01:10:03;0.30;;;0.30;;
58972;SDS011;44750;52.040;7.472;2023-05-10T01:15:05;0.75;;;0.50;;
58972;SDS011;44750;52.040;7.472;2023-05-10T01:20:07;0.43;;;0.43;;
58972;SDS011;44750;52.040;7.472;2023-05-10T01:46:16;1.35;;;0.32;;
58972;SDS011;44750;52.040;7.472;2023-05-10T01:51:22;0.68;;;0.68;;
58972;SDS011;44750;52.040;7.472;2023-05-10T01:56:25;0.82;;;0.50;;
58972;SDS011;44750;52.040;7.472;2023-05-10T02:01:27;0.60;;;0.60;;
58972;SDS011;44750;52.040;7.472;2023-05-10T02:06:27;0.82;;;0.57;;
58972;SDS011;44750;52.040;7.472;2023-05-10T02:11:28;0.60;;;0.60;;
58972;SDS011;44750;52.040;7.472;2023-05-10T02:16:30;0.95;;;0.85;;
58972;SDS011;44750;52.040;7.472;2023-05-10T02:21:31;0.50;;;0.50;;
58972;SDS011;44750;52.040;7.472;2023-05-10T02:26:33;0.70;;;0.70;;
58972;SDS011;44750;52.040;7.472;2023-05-10T02:31:35;0.63;;;0.55;;
58972;SDS011;44750;52.040;7.472;2023-05-10T02:36:37;1.00;;;0.70;;
58972;SDS011;44750;52.040;7.472;2023-05-10T02:41:39;1.35;;;0.90;;
58972;SDS011;44750;52.040;7.472;2023-05-10T02:46:40;0.75;;;0.75;;
58972;SDS011;44750;52.040;7.472;2023-05-10T02:51:41;1.60;;;1.15;;
58972;SDS011;44750;52.040;7.472;2023-05-10T02:56:47;1.58;;;0.90;;
58972;SDS011;44750;52.040;7.472;2023-05-10T03:01:51;1.23;;;0.93;;
58972;SDS011;44750;52.040;7.472;2023-05-10T03:06:51;1.83;;;1.40;;
58972;SDS011;44750;52.040;7.472;2023-05-10T03:11:56;1.50;;;1.38;;
58972;SDS011;44750;52.040;7.472;2023-05-10T03:17:09;0.85;;;0.85;;
58972;SDS011;44750;52.040;7.472;2023-05-10T03:22:16;1.58;;;1.48;;
58972;SDS011;44750;52.040;7.472;2023-05-10T03:27:40;1.08;;;0.98;;
58972;SDS011;44750;52.040;7.472;2023-05-10T03:32:42;1.10;;;0.98;;
58972;SDS011;44750;52.040;7.472;2023-05-10T03:37:42;1.83;;;1.50;;
58972;SDS011;44750;52.040;7.472;2023-05-10T03:42:42;2.72;;;1.00;;
58972;SDS011;44750;52.040;7.472;2023-05-10T03:47:43;1.23;;;0.98;;
58972;SDS011;44750;52.040;7.472;2023-05-10T03:52:43;1.85;;;1.50;;
58972;SDS011;44750;52.040;7.472;2023-05-10T03:57:43;1.90;;;1.17;;
58972;SDS011;44750;52.040;7.472;2023-05-10T04:02:43;3.25;;;1.42;;
58972;SDS011;44750;52.040;7.472;2023-05-10T04:07:43;3.22;;;1.17;;
58972;SDS011;44750;52.040;7.472;2023-05-10T04:12:44;2.72;;;1.08;;
58972;SDS011;44750;52.040;7.472;2023-05-10T04:17:44;0.83;;;0.80;;
58972;SDS011;44750;52.040;7.472;2023-05-10T04:22:44;1.45;;;0.90;;
58972;SDS011;44750;52.040;7.472;2023-05-10T04:27:45;3.92;;;1.65;;
58972;SDS011;44750;52.040;7.472;2023-05-10T04:32:45;1.75;;;1.65;;
58972;SDS011;44750;52.040;7.472;2023-05-10T04:37:45;1.60;;;1.50;;
58972;SDS011;44750;52.040;7.472;2023-05-10T04:42:45;2.92;;;1.88;;
58972;SDS011;44750;52.040;7.472;2023-05-10T04:47:46;1.63;;;1.42;;
58972;SDS011;44750;52.040;7.472;2023-05-10T04:52:46;2.30;;;1.95;;
58972;SDS011;44750;52.040;7.472;2023-05-10T04:57:46;1.88;;;1.77;;
58972;SDS011;44750;52.040;7.472;2023-05-10T05:02:46;2.67;;;2.13;;
58972;SDS011;44750;52.040;7.472;2023-05-10T05:07:47;3.00;;;2.08;;
58972;SDS011;44750;52.040;7.472;2023-05-10T05:12:47;3.58;;;2.53;;
58972;SDS011;44750;52.040;7.472;2023-05-10T05:17:47;2.53;;;2.13;;
58972;SDS011;44750;52.040;7.472;2023-05-10T05:22:47;2.22;;;2.03;;
58972;SDS011;44750;52.040;7.472;2023-05-10T05:27:48;6.03;;;3.88;;
58972;SDS011;44750;52.040;7.472;2023-05-10T05:32:48;5.40;;;3.83;;
58972;SDS011;44750;52.040;7.472;2023-05-10T05:37:48;6.45;;;4.53;;
58972;SDS011;44750;52.040;7.472;2023-05-10T05:42:48;6.53;;;4.25;;
58972;SDS011;44750;52.040;7.472;2023-05-10T05:47:48;7.72;;;4.88;;
58972;SDS011;44750;52.040;7.472;2023-05-10T05:52:49;10.82;;;6.03;;
58972;SDS011;44750;52.040;7.472;2023-05-10T05:57:49;5.78;;;4.35;;
58972;SDS011;44750;52.040;7.472;2023-05-10T06:02:49;7.33;;;5.37;;
58972;SDS011;44750;52.040;7.472;2023-05-10T06:07:49;8.60;;;5.75;;
58972;SDS011;44750;52.040;7.472;2023-05-10T06:12:50;11.13;;;6.13;;
58972;SDS011;44750;52.040;7.472;2023-05-10T06:17:50;12.80;;;6.22;;
58972;SDS011;44750;52.040;7.472;2023-05-10T06:22:50;10.88;;;7.50;;
58972;SDS011;44750;52.040;7.472;2023-05-10T06:27:50;7.97;;;5.70;;
58972;SDS011;44750;52.040;7.472;2023-05-10T06:32:51;9.88;;;6.35;;
58972;SDS011;44750;52.040;7.472;2023-05-10T06:37:51;7.55;;;5.47;;
58972;SDS011;44750;52.040;7.472;2023-05-10T06:42:51;10.32;;;6.10;;
58972;SDS011;44750;52.040;7.472;2023-05-10T06:47:51;10.68;;;7.00;;
58972;SDS011;44750;52.040;7.472;2023-05-10T06:52:51;8.13;;;6.70;;
58972;SDS011;44750;52.040;7.472;2023-05-10T06:57:52;10.82;;;6.80;;
58972;SDS011;44750;52.040;7.472;2023-05-10T07:02:52;10.57;;;7.05;;
58972;SDS011;44750;52.040;7.472;2023-05-10T07:07:52;19.58;;;7.03;;
58972;SDS011;44750;52.040;7.472;2023-05-10T07:12:52;9.05;;;7.22;;
58972;SDS011;44750;52.040;7.472;2023-05-10T07:17:52;9.02;;;6.70;;
58972;SDS011;44750;52.040;7.472;2023-05-10T07:22:53;16.50;;;7.68;;
58972;SDS011;44750;52.040;7.472;2023-05-10T07:27:53;10.43;;;6.88;;
58972;SDS011;44750;52.040;7.472;2023-05-10T07:32:53;12.90;;;7.28;;
58972;SDS011;44750;52.040;7.472;2023-05-10T07:37:53;7.68;;;6.68;;
58972;SDS011;44750;52.040;7.472;2023-05-10T07:42:54;11.10;;;7.05;;
58972;SDS011;44750;52.040;7.472;2023-05-10T07:47:54;6.17;;;5.57;;
58972;SDS011;44750;52.040;7.472;2023-05-10T07:52:54;10.48;;;6.15;;
58972;SDS011;44750;52.040;7.472;2023-05-10T07:57:54;9.53;;;5.87;;
58972;SDS011;44750;52.040;7.472;2023-05-10T08:02:55;5.90;;;4.75;;
58972;SDS011;44750;52.040;7.472;2023-05-10T08:07:55;8.13;;;6.47;;
58972;SDS011;44750;52.040;7.472;2023-05-10T08:12:55;12.90;;;6.40;;
58972;SDS011;44750;52.040;7.472;2023-05-10T08:17:55;8.45;;;6.05;;
58972;SDS011;44750;52.040;7.472;2023-05-10T08:22:56;10.25;;;6.40;;
58972;SDS011;44750;52.040;7.472;2023-05-10T08:27:56;6.80;;;5.22;;
58972;SDS011;44750;52.040;7.472;2023-05-10T08:32:56;8.35;;;6.93;;
58972;SDS011;44750;52.040;7.472;2023-05-10T08:37:56;8.95;;;5.90;;
58972;SDS011;44750;52.040;7.472;2023-05-10T08:43:08;11.93;;;6.13;;
58972;SDS011;44750;52.040;7.472;2023-05-10T08:48:10;8.68;;;6.05;;
58972;SDS011;44750;52.040;7.472;2023-05-10T08:53:11;7.30;;;5.18;;
58972;SDS011;44750;52.040;7.472;2023-05-10T08:58:13;6.22;;;4.93;;
58972;SDS011;44750;52.040;7.472;2023-05-10T09:03:14;6.35;;;4.82;;
58972;SDS011;44750;52.040;7.472;2023-05-10T09:08:14;24.00;;;7.07;;
58972;SDS011;44750;52.040;7.472;2023-05-10T09:13:15;8.63;;;4.85;;
58972;SDS011;44750;52.040;7.472;2023-05-10T09:18:17;12.43;;;5.90;;
58972;SDS011;44750;52.040;7.472;2023-05-10T09:23:17;8.45;;;4.85;;
58972;SDS011;44750;52.040;7.472;2023-05-10T09:28:19;9.20;;;5.35;;
58972;SDS011;44750;52.040;7.472;2023-05-10T09:33:19;9.32;;;5.75;;
58972;SDS011;44750;52.040;7.472;2023-05-10T09:38:19;5.40;;;4.53;;
58972;SDS011;44750;52.040;7.472;2023-05-10T09:43:19;6.88;;;3.85;;
58972;SDS011;44750;52.040;7.472;2023-05-10T09:48:21;6.93;;;4.43;;
58972;SDS011;44750;52.040;7.472;2023-05-10T09:53:23;7.23;;;4.63;;
58972;SDS011;44750;52.040;7.472;2023-05-10T09:58:23;10.57;;;4.88;;
58972;SDS011;44750;52.040;7.472;2023-05-10T10:03:24;7.63;;;4.45;;
58972;SDS011;44750;52.040;7.472;2023-05-10T10:08:24;5.80;;;3.90;;
58972;SDS011;44750;52.040;7.472;2023-05-10T10:13:25;5.63;;;4.18;;
58972;SDS011;44750;52.040;7.472;2023-05-10T10:18:25;6.65;;;4.93;;
58972;SDS011;44750;52.040;7.472;2023-05-10T10:23:26;5.57;;;4.72;;
58972;SDS011;44750;52.040;7.472;2023-05-10T10:34:05;5.97;;;4.38;;
58972;SDS011;44750;52.040;7.472;2023-05-10T10:39:09;6.68;;;4.28;;
58972;SDS011;44750;52.040;7.472;2023-05-10T10:44:22;6.22;;;4.13;;
58972;SDS011;44750;52.040;7.472;2023-05-10T10:49:22;7.25;;;4.55;;
58972;SDS011;44750;52.040;7.472;2023-05-10T10:54:28;7.57;;;3.92;;
58972;SDS011;44750;52.040;7.472;2023-05-10T10:59:28;4.38;;;3.40;;
58972;SDS011;44750;52.040;7.472;2023-05-10T11:04:29;5.90;;;3.70;;
58972;SDS011;44750;52.040;7.472;2023-05-10T11:09:41;7.88;;;4.65;;
58972;SDS011;44750;52.040;7.472;2023-05-10T11:14:42;8.70;;;5.07;;
58972;SDS011;44750;52.040;7.472;2023-05-10T11:19:53;5.05;;;4.03;;
58972;SDS011;44750;52.040;7.472;2023-05-10T11:25:06;6.55;;;4.18;;
58972;SDS011;44750;52.040;7.472;2023-05-10T11:30:06;6.90;;;4.13;;
58972;SDS011;44750;52.040;7.472;2023-05-10T11:35:10;4.85;;;4.28;;
58972;SDS011;44750;52.040;7.472;2023-05-10T11:40:11;5.65;;;4.30;;
58972;SDS011;44750;52.040;7.472;2023-05-10T11:45:11;7.95;;;4.15;;
58972;SDS011;44750;52.040;7.472;2023-05-10T11:50:12;5.22;;;4.03;;
58972;SDS011;44750;52.040;7.472;2023-05-10T11:55:12;6.07;;;3.92;;
58972;SDS011;44750;52.040;7.472;2023-05-10T12:00:13;4.20;;;2.93;;
58972;SDS011;44750;52.040;7.472;2023-05-10T12:05:13;5.60;;;3.55;;
58972;SDS011;44750;52.040;7.472;2023-05-10T12:10:14;4.20;;;3.20;;
58972;SDS011;44750;52.040;7.472;2023-05-10T12:15:19;3.53;;;2.65;;
58972;SDS011;44750;52.040;7.472;2023-05-10T12:20:24;3.38;;;2.67;;
58972;SDS011;44750;52.040;7.472;2023-05-10T12:25:29;8.47;;;2.83;;
58972;SDS011;44750;52.040;7.472;2023-05-10T12:30:31;3.67;;;1.98;;
58972;SDS011;44750;52.040;7.472;2023-05-10T12:35:33;2.45;;;2.15;;
58972;SDS011;44750;52.040;7.472;2023-05-10T12:40:53;5.63;;;2.40;;
58972;SDS011;44750;52.040;7.472;2023-05-10T12:45:53;3.72;;;2.97;;
58972;SDS011;44750;52.040;7.472;2023-05-10T12:50:53;5.20;;;3.03;;
58972;SDS011;44750;52.040;7.472;2023-05-10T12:55:54;4.97;;;3.95;;
58972;SDS011;44750;52.040;7.472;2023-05-10T13:00:54;5.65;;;3.42;;
58972;SDS011;44750;52.040;7.472;2023-05-10T13:05:56;5.50;;;3.17;;
58972;SDS011;44750;52.040;7.472;2023-05-10T13:10:56;2.75;;;2.40;;
58972;SDS011;44750;52.040;7.472;2023-05-10T13:15:56;5.53;;;3.75;;
58972;SDS011;44750;52.040;7.472;2023-05-10T13:20:56;6.90;;;3.67;;
58972;SDS011;44750;52.040;7.472;2023-05-10T13:25:57;4.50;;;2.10;;
58972;SDS011;44750;52.040;7.472;2023-05-10T13:30:57;3.67;;;1.95;;
58972;SDS011;44750;52.040;7.472;2023-05-10T13:35:57;5.23;;;3.00;;
58972;SDS011;44750;52.040;7.472;2023-05-10T13:40:57;2.53;;;2.05;;
58972;SDS011;44750;52.040;7.472;2023-05-10T13:45:58;3.88;;;2.08;;
58972;SDS011;44750;52.040;7.472;2023-05-10T13:50:58;3.60;;;2.45;;
58972;SDS011;44750;52.040;7.472;2023-05-10T13:55:58;3.00;;;2.35;;
58972;SDS011;44750;52.040;7.472;2023-05-10T14:00:58;4.88;;;3.55;;
58972;SDS011;44750;52.040;7.472;2023-05-10T14:05:58;2.75;;;2.47;;
58972;SDS011;44750;52.040;7.472;2023-05-10T14:10:59;3.30;;;2.80;;
58972;SDS011;44750;52.040;7.472;2023-05-10T14:15:59;4.97;;;3.47;;
58972;SDS011;44750;52.040;7.472;2023-05-10T14:21:00;6.15;;;3.20;;
58972;SDS011;44750;52.040;7.472;2023-05-10T14:26:01;8.23;;;3.25;;
58972;SDS011;44750;52.040;7.472;2023-05-10T14:31:01;6.73;;;4.00;;
58972;SDS011;44750;52.040;7.472;2023-05-10T14:36:02;3.17;;;2.70;;
58972;SDS011;44750;52.040;7.472;2023-05-10T14:41:02;7.60;;;3.60;;
58972;SDS011;44750;52.040;7.472;2023-05-10T14:46:02;3.22;;;2.80;;
58972;SDS011;44750;52.040;7.472;2023-05-10T14:51:03;6.18;;;3.55;;
58972;SDS011;44750;52.040;7.472;2023-05-10T14:56:04;4.35;;;3.03;;
58972;SDS011;44750;52.040;7.472;2023-05-10T15:01:05;2.78;;;2.50;;
58972;SDS011;44750;52.040;7.472;2023-05-10T15:06:05;2.97;;;2.15;;
58972;SDS011;44750;52.040;7.472;2023-05-10T15:11:08;3.90;;;2.88;;
58972;SDS011;44750;52.040;7.472;2023-05-10T15:16:08;4.07;;;2.08;;
58972;SDS011;44750;52.040;7.472;2023-05-10T15:21:09;3.20;;;2.55;;
58972;SDS011;44750;52.040;7.472;2023-05-10T15:26:09;5.00;;;2.28;;
58972;SDS011;44750;52.040;7.472;2023-05-10T15:31:09;3.55;;;2.63;;
58972;SDS011;44750;52.040;7.472;2023-05-10T15:36:10;2.95;;;2.67;;
58972;SDS011;44750;52.040;7.472;2023-05-10T15:41:10;3.87;;;2.97;;
58972;SDS011;44750;52.040;7.472;2023-05-10T15:46:11;2.67;;;2.47;;
58972;SDS011;44750;52.040;7.472;2023-05-10T15:51:12;3.80;;;3.08;;
58972;SDS011;44750;52.040;7.472;2023-05-10T15:56:12;16.75;;;2.67;;
58972;SDS011;44750;52.040;7.472;2023-05-10T16:01:12;2.72;;;2.33;;
58972;SDS011;44750;52.040;7.472;2023-05-10T16:06:12;4.60;;;3.45;;
58972;SDS011;44750;52.040;7.472;2023-05-10T16:11:13;5.82;;;3.25;;
58972;SDS011;44750;52.040;7.472;2023-05-10T16:16:15;2.60;;;2.40;;
58972;SDS011;44750;52.040;7.472;2023-05-10T16:21:16;2.58;;;2.38;;
58972;SDS011;44750;52.040;7.472;2023-05-10T16:26:16;4.07;;;2.40;;
58972;SDS011;44750;52.040;7.472;2023-05-10T16:31:17;2.57;;;2.37;;
58972;SDS011;44750;52.040;7.472;2023-05-10T16:36:17;4.63;;;3.13;;
58972;SDS011;44750;52.040;7.472;2023-05-10T16:41:17;4.20;;;2.95;;
58972;SDS011;44750;52.040;7.472;2023-05-10T16:46:17;3.63;;;2.95;;
58972;SDS011;44750;52.040;7.472;2023-05-10T16:51:18;2.33;;;2.08;;
58972;SDS011;44750;52.040;7.472;2023-05-10T16:56:18;2.63;;;2.20;;
58972;SDS011;44750;52.040;7.472;2023-05-10T17:01:18;2.45;;;2.15;;
58972;SDS011;44750;52.040;7.472;2023-05-10T17:06:18;6.90;;;2.83;;
58972;SDS011;44750;52.040;7.472;2023-05-10T17:11:18;5.82;;;3.40;;
58972;SDS011;44750;52.040;7.472;2023-05-10T17:16:19;3.53;;;2.85;;
58972;SDS011;44750;52.040;7.472;2023-05-10T17:21:22;3.00;;;2.53;;
58972;SDS011;44750;52.040;7.472;2023-05-10T17:26:22;5.88;;;3.35;;
58972;SDS011;44750;52.040;7.472;2023-05-10T17:31:22;2.60;;;2.40;;
58972;SDS011;44750;52.040;7.472;2023-05-10T17:36:22;4.00;;;2.47;;
58972;SDS011;44750;52.040;7.472;2023-05-10T17:41:22;3.78;;;2.50;;
58972;SDS011;44750;52.040;7.472;2023-05-10T17:46:23;4.77;;;2.80;;
58972;SDS011;44750;52.040;7.472;2023-05-10T17:51:23;3.25;;;2.40;;
58972;SDS011;44750;52.040;7.472;2023-05-10T17:56:23;4.32;;;2.05;;
58972;SDS011;44750;52.040;7.472;2023-05-10T18:01:23;3.45;;;2.28;;
58972;SDS011;44750;52.040;7.472;2023-05-10T18:06:24;2.22;;;2.03;;
58972;SDS011;44750;52.040;7.472;2023-05-10T18:11:24;3.63;;;2.00;;
58972;SDS011;44750;52.040;7.472;2023-05-10T18:16:24;2.08;;;1.70;;
58972;SDS011;44750;52.040;7.472;2023-05-10T18:21:24;1.95;;;1.35;;
58972;SDS011;44750;52.040;7.472;2023-05-10T18:26:25;3.45;;;2.10;;
58972;SDS011;44750;52.040;7.472;2023-05-10T18:31:25;5.00;;;2.05;;
58972;SDS011;44750;52.040;7.472;2023-05-10T18:36:25;3.63;;;1.65;;
58972;SDS011;44750;52.040;7.472;2023-05-10T18:41:25;2.28;;;1.52;;
58972;SDS011;44750;52.040;7.472;2023-05-10T18:46:26;4.40;;;1.80;;
58972;SDS011;44750;52.040;7.472;2023-05-10T18:51:26;1.75;;;1.38;;
58972;SDS011;44750;52.040;7.472;2023-05-10T18:56:26;1.45;;;1.33;;
58972;SDS011;44750;52.040;7.472;2023-05-10T19:01:26;2.88;;;1.55;;
58972;SDS011;44750;52.040;7.472;2023-05-10T19:06:26;1.67;;;1.58;;
58972;SDS011;44750;52.040;7.472;2023-05-10T19:11:27;1.33;;;1.20;;
58972;SDS011;44750;52.040;7.472;2023-05-10T19:16:27;2.38;;;1.77;;
58972;SDS011;44750;52.040;7.472;2023-05-10T19:21:27;1.45;;;1.35;;
58972;SDS011;44750;52.040;7.472;2023-05-10T19:26:27;2.08;;;1.58;;
58972;SDS011;44750;52.040;7.472;2023-05-10T19:31:28;2.60;;;1.27;;
58972;SDS011;44750;52.040;7.472;2023-05-10T19:36:28;2.43;;;1.80;;
58972;SDS011;44750;52.040;7.472;2023-05-10T19:41:28;2.70;;;2.05;;
58972;SDS011;44750;52.040;7.472;2023-05-10T19:46:28;2.20;;;1.73;;
58972;SDS011;44750;52.040;7.472;2023-05-10T19:51:28;2.67;;;2.08;;
58972;SDS011;44750;52.040;7.472;2023-05-10T19:56:29;3.45;;;2.22;;
58972;SDS011;44750;52.040;7.472;2023-05-10T20:01:29;3.85;;;1.40;;
58972;SDS011;44750;52.040;7.472;2023-05-10T20:06:29;7.95;;;2.20;;
58972;SDS011;44750;52.040;7.472;2023-05-10T20:11:29;1.40;;;1.30;;
58972;SDS011;44750;52.040;7.472;2023-05-10T20:16:30;2.88;;;1.58;;
58972;SDS011;44750;52.040;7.472;2023-05-10T20:21:30;2.38;;;1.25;;
58972;SDS011;44750;52.040;7.472;2023-05-10T20:26:33;16.90;;;1.67;;
58972;SDS011;44750;52.040;7.472;2023-05-10T20:31:33;2.67;;;2.28;;
58972;SDS011;44750;52.040;7.472;2023-05-10T20:36:34;3.28;;;1.92;;
58972;SDS011;44750;52.040;7.472;2023-05-10T20:41:36;1.93;;;1.73;;
58972;SDS011;44750;52.040;7.472;2023-05-10T20:46:36;3.55;;;1.90;;
58972;SDS011;44750;52.040;7.472;2023-05-10T20:51:37;3.60;;;1.77;;
58972;SDS011;44750;52.040;7.472;2023-05-10T20:56:37;2.75;;;2.13;;
58972;SDS011;44750;52.040;7.472;2023-05-10T21:01:40;1.65;;;1.50;;
58972;SDS011;44750;52.040;7.472;2023-05-10T21:06:41;2.17;;;1.98;;
58972;SDS011;44750;52.040;7.472;2023-05-10T21:11:53;2.22;;;2.00;;
58972;SDS011;44750;52.040;7.472;2023-05-10T21:16:53;4.25;;;2.42;;
58972;SDS011;44750;52.040;7.472;2023-05-10T21:21:53;2.37;;;1.90;;
58972;SDS011;44750;52.040;7.472;2023-05-10T21:26:56;2.87;;;2.20;;
58972;SDS011;44750;52.040;7.472;2023-05-10T21:32:00;3.15;;;2.35;;
58972;SDS011;44750;52.040;7.472;2023-05-10T21:37:03;5.37;;;2.53;;
58972;SDS011;44750;52.040;7.472;2023-05-10T21:42:06;2.92;;;2.20;;
58972;SDS011;44750;52.040;7.472;2023-05-10T21:47:10;2.80;;;1.85;;
58972;SDS011;44750;52.040;7.472;2023-05-10T21:52:10;2.92;;;1.95;;
58972;SDS011;44750;52.040;7.472;2023-05-10T21:57:13;2.63;;;2.42;;
58972;SDS011;44750;52.040;7.472;2023-05-10T22:02:14;3.90;;;2.58;;
58972;SDS011;44750;52.040;7.472;2023-05-10T22:07:14;7.93;;;2.63;;
58972;SDS011;44750;52.040;7.472;2023-05-10T22:12:14;3.08;;;2.78;;
58972;SDS011;44750;52.040;7.472;2023-05-10T22:17:14;5.13;;;3.78;;
58972;SDS011;44750;52.040;7.472;2023-05-10T22:22:15;5.63;;;3.73;;
58972;SDS011;44750;52.040;7.472;2023-05-10T22:27:15;5.75;;;3.97;;
58972;SDS011;44750;52.040;7.472;2023-05-10T22:32:15;3.30;;;3.00;;
58972;SDS011;44750;52.040;7.472;2023-05-10T22:37:16;9.82;;;4.90;;
58972;SDS011;44750;52.040;7.472;2023-05-10T22:42:16;6.55;;;4.53;;
58972;SDS011;44750;52.040;7.472;2023-05-10T22:47:16;10.07;;;5.03;;
58972;SDS011;44750;52.040;7.472;2023-05-10T22:52:16;6.53;;;2.65;;
58972;SDS011;44750;52.040;7.472;2023-05-10T22:57:16;4.60;;;2.72;;
58972;SDS011;44750;52.040;7.472;2023-05-10T23:02:17;2.70;;;2.50;;
58972;SDS011;44750;52.040;7.472;2023-05-10T23:07:17;5.68;;;2.90;;
58972;SDS011;44750;52.040;7.472;2023-05-10T23:12:17;3.05;;;2.58;;
58972;SDS011;44750;52.040;7.472;2023-05-10T23:17:17;4.65;;;2.95;;
58972;SDS011;44750;52.040;7.472;2023-05-10T23:22:18;4.10;;;2.88;;
58972;SDS011;44750;52.040;7.472;2023-05-10T23:27:18;4.28;;;3.53;;
58972;SDS011;44750;52.040;7.472;2023-05-10T23:32:18;5.15;;;3.05;;
58972;SDS011;44750;52.040;7.472;2023-05-10T23:37:18;4.10;;;2.80;;
58972;SDS011;44750;52.040;7.472;2023-05-10T23:42:18;6.82;;;2.85;;
58972;SDS011;44750;52.040;7.472;2023-05-10T23:47:19;4.40;;;3.30;;
58972;SDS011;44750;52.040;7.472;2023-05-10T23:52:19;3.15;;;2.75;;
58972;SDS011;44750;52.040;7.472;2023-05-10T23:57:19;4.05;;;3.42;;
